Time;durP1;ratioP1;P1;durP2;ratioP2;P2;SDS_P1;SDS_P2;PMS_P1;PMS_P2;Temp;Humidity;BMP_temperature;BMP_pressure;BME280_temperature;BME280_humidity;BME280_pressure;Samples;Min_cycle;Max_cycle;Signal;HPM_P1;HPM_P2
2023/01/14 00:00:17;;;;;;;26.23;15.40;;;;;;;6.08;100.00;94730.03;5069234;28;20221;-55
2023/01/14 00:02:42;;;;;;;29.83;15.60;;;;;;;5.95;100.00;94714.91;5053559;28;20211;-57
2023/01/14 00:05:09;;;;;;;21.07;13.50;;;;;;;5.76;100.00;94692.56;5071490;28;20208;-56
2023/01/14 00:07:41;;;;;;;25.47;12.93;;;;;;;5.90;100.00;94747.16;5071588;28;20279;-54
2023/01/14 00:10:07;;;;;;;24.47;13.77;;;;;;;5.84;100.00;94742.53;5071691;28;20224;-56
2023/01/14 00:12:33;;;;;;;21.67;12.83;;;;;;;5.79;100.00;94710.03;5071530;28;20192;-56
2023/01/14 00:14:58;;;;;;;24.03;13.67;;;;;;;5.83;100.00;94726.59;5070227;28;20216;-54
2023/01/14 00:17:24;;;;;;;25.03;14.47;;;;;;;5.85;100.00;94731.53;5069919;28;20341;-57
2023/01/14 00:19:49;;;;;;;23.37;14.53;;;;;;;6.02;100.00;94761.50;5070184;28;20253;-56
2023/01/14 00:22:15;;;;;;;26.70;14.30;;;;;;;6.08;100.00;94762.84;5069865;28;20192;-54
2023/01/14 00:24:41;;;;;;;24.97;14.80;;;;;;;6.04;100.00;94753.88;5071422;28;20265;-57
2023/01/14 00:27:06;;;;;;;28.03;17.23;;;;;;;6.26;100.00;94761.63;5070996;28;20221;-56
2023/01/14 00:29:33;;;;;;;33.17;17.27;;;;;;;6.32;100.00;94768.81;5070684;28;20205;-56
2023/01/14 00:32:03;;;;;;;30.77;17.53;;;;;;;6.30;100.00;94750.41;5070769;28;20538;-57
2023/01/14 00:34:29;;;;;;;31.80;18.20;;;;;;;6.24;100.00;94756.66;5070778;28;20210;-53
2023/01/14 00:36:56;;;;;;;30.67;17.70;;;;;;;6.12;100.00;94736.50;5070410;28;20223;-53
2023/01/14 00:39:28;;;;;;;30.80;16.93;;;;;;;5.97;100.00;94700.47;5070523;28;20237;-57
2023/01/14 00:41:53;;;;;;;32.33;16.97;;;;;;;5.88;100.00;94699.34;5071124;28;20235;-53
2023/01/14 00:44:19;;;;;;;25.53;15.83;;;;;;;5.99;100.00;94703.69;5070742;28;20559;-56
2023/01/14 00:46:45;;;;;;;25.70;15.53;;;;;;;6.02;100.00;94706.00;5069570;28;20279;-57
2023/01/14 00:49:23;;;;;;;29.57;16.00;;;;;;;5.86;100.00;94692.78;5069458;28;20197;-57
2023/01/14 00:51:49;;;;;;;27.90;16.10;;;;;;;5.91;100.00;94699.16;5070732;28;20188;-57
2023/01/14 00:54:15;;;;;;;26.07;16.07;;;;;;;5.99;100.00;94708.75;5070363;28;20214;-55
2023/01/14 00:56:40;;;;;;;28.30;15.40;;;;;;;6.12;100.00;94718.84;5068835;28;20275;-55
2023/01/14 00:59:07;;;;;;;29.07;16.80;;;;;;;5.96;100.00;94698.06;5070522;28;20228;-56
2023/01/14 01:01:32;;;;;;;27.40;16.40;;;;;;;5.94;100.00;94700.66;5070905;28;20187;-54
2023/01/14 01:03:58;;;;;;;33.70;18.10;;;;;;;5.93;100.00;94709.97;5070284;28;20298;-53
2023/01/14 01:06:25;;;;;;;35.33;20.13;;;;;;;5.84;100.00;94687.03;5070481;28;20271;-53
2023/01/14 01:08:58;;;;;;;35.40;18.37;;;;;;;5.84;100.00;94705.50;5070474;28;20210;-54
2023/01/14 01:11:24;;;;;;;32.23;17.97;;;;;;;5.89;100.00;94705.22;5070760;28;20197;-56
2023/01/14 01:13:49;;;;;;;30.23;17.37;;;;;;;5.97;100.00;94715.59;5070725;28;20185;-57
2023/01/14 01:16:16;;;;;;;30.70;16.83;;;;;;;6.09;100.00;94734.97;5070494;28;20648;-57
2023/01/14 01:18:43;;;;;;;30.63;17.70;;;;;;;6.14;100.00;94737.22;5052540;28;20192;-57
2023/01/14 01:21:11;;;;;;;34.30;17.07;;;;;;;5.97;100.00;94723.16;5070825;28;20232;-53
2023/01/14 01:23:40;;;;;;;26.53;16.40;;;;;;;5.96;100.00;94718.22;5070720;28;20230;-56
2023/01/14 01:26:08;;;;;;;27.50;15.17;;;;;;;5.96;100.00;94691.25;5070841;28;20251;-58
2023/01/14 01:28:33;;;;;;;24.43;16.30;;;;;;;5.93;100.00;94704.09;5070372;28;20280;-54
2023/01/14 01:31:04;;;;;;;26.80;15.87;;;;;;;6.03;100.00;94717.72;5070723;28;20235;-53
2023/01/14 01:33:30;;;;;;;22.87;14.53;;;;;;;6.07;100.00;94719.13;5072989;28;20192;-57
2023/01/14 01:36:01;;;;;;;25.40;15.60;;;;;;;6.24;100.00;94751.63;5055993;28;20238;-56
2023/01/14 01:38:27;;;;;;;27.83;14.67;;;;;;;6.15;100.00;94749.72;5073897;28;20693;-57
2023/01/14 01:40:53;;;;;;;24.23;15.20;;;;;;;5.96;100.00;94703.88;5074123;28;20580;-53
2023/01/14 01:43:21;;;;;;;26.13;14.90;;;;;;;6.03;100.00;94712.69;5073694;28;20278;-54
2023/01/14 01:45:48;;;;;;;25.50;15.93;;;;;;;6.09;100.00;94719.84;5074140;28;21523;-56
2023/01/14 01:48:17;;;;;;;22.53;13.97;;;;;;;6.21;100.00;94745.97;5073569;28;20181;-56
2023/01/14 01:50:45;;;;;;;26.07;14.70;;;;;;;6.13;100.00;94736.41;5073973;28;20209;-57
2023/01/14 01:53:12;;;;;;;26.20;14.73;;;;;;;6.25;100.00;94742.34;5073706;28;20288;-54
2023/01/14 01:55:41;;;;;;;27.13;14.83;;;;;;;6.23;100.00;94739.91;5073240;28;20611;-54
2023/01/14 01:58:09;;;;;;;23.00;13.70;;;;;;;6.12;100.00;94712.06;5073817;28;20254;-57
2023/01/14 02:00:35;;;;;;;27.37;14.10;;;;;;;6.27;100.00;94732.94;5073481;28;20216;-53
2023/01/14 02:03:05;;;;;;;25.03;14.50;;;;;;;6.28;100.00;94747.97;5073415;28;20188;-55
2023/01/14 02:05:30;;;;;;;24.57;14.63;;;;;;;6.21;100.00;94754.34;5072383;28;20865;-54
2023/01/14 02:07:58;;;;;;;21.73;13.00;;;;;;;6.18;100.00;94756.28;5072575;28;20279;-57
2023/01/14 02:10:40;;;;;;;23.50;13.30;;;;;;;6.01;100.00;94744.78;5072920;28;20254;-54
2023/01/14 02:13:33;;;;;;;21.87;13.60;;;;;;;5.66;100.00;94660.47;5072562;28;20235;-57
2023/01/14 02:16:12;;;;;;;20.93;13.10;;;;;;;5.85;100.00;94712.19;5072602;28;20223;-56
2023/01/14 02:18:57;;;;;;;23.63;14.07;;;;;;;5.36;100.00;94667.50;5071977;28;20188;-53
2023/01/14 02:21:36;;;;;;;28.13;15.30;;;;;;;5.11;100.00;94646.38;5072975;28;20200;-53
2023/01/14 02:24:38;;;;;;;24.30;14.73;;;;;;;5.07;100.00;94651.72;5072585;28;20643;-53
2023/01/14 02:27:16;;;;;;;19.40;13.17;;;;;;;5.22;100.00;94700.34;5054906;28;20249;-52
2023/01/14 02:29:53;;;;;;;25.77;14.03;;;;;;;5.11;100.00;94670.78;5073068;28;20556;-53
2023/01/14 02:32:39;;;;;;;26.83;17.07;;;;;;;4.86;100.00;94651.38;5072907;28;20195;-53
2023/01/14 02:35:17;;;;;;;28.93;17.20;;;;;;;4.94;100.00;94659.25;5073161;28;20292;-56
2023/01/14 02:37:51;;;;;;;29.97;16.70;;;;;;;5.05;100.00;94666.94;5073115;28;20216;-56
2023/01/14 02:40:27;;;;;;;29.40;16.97;;;;;;;5.00;100.00;94668.13;5072587;28;20223;-53
2023/01/14 02:46:13;;;;;;;31.70;17.20;;;;;;;4.43;100.00;94597.03;5072516;28;20214;-57
2023/01/14 02:48:40;;;;;;;30.60;16.67;;;;;;;5.06;100.00;94677.81;5072772;28;20234;-53
2023/01/14 02:51:06;;;;;;;25.80;15.97;;;;;;;5.22;100.00;94677.66;5072627;28;20719;-69
2023/01/14 02:53:32;;;;;;;26.47;15.40;;;;;;;5.10;100.00;94684.28;5072694;28;20188;-55
2023/01/14 02:55:58;;;;;;;29.20;15.70;;;;;;;5.15;100.00;94692.38;5072874;28;20220;-57
2023/01/14 02:58:42;;;;;;;28.53;16.10;;;;;;;5.10;100.00;94689.31;5072893;28;20183;-55
2023/01/14 03:01:28;;;;;;;27.73;16.93;;;;;;;4.95;100.00;94677.69;5072790;28;20234;-53
2023/01/14 03:04:06;;;;;;;29.90;16.23;;;;;;;4.90;100.00;94679.69;5072945;28;20210;-54
2023/01/14 03:06:40;;;;;;;29.23;17.50;;;;;;;4.85;100.00;94669.91;5072453;28;20209;-56
2023/01/14 03:09:49;;;;;;;29.17;17.60;;;;;;;4.70;100.00;94668.34;5072517;28;20669;-57
2023/01/14 03:12:18;;;;;;;30.17;16.83;;;;;;;4.76;100.00;94669.66;5043727;28;20199;-56
2023/01/14 03:14:59;;;;;;;32.03;17.47;;;;;;;4.77;100.00;94674.59;5072497;28;20224;-53
2023/01/14 03:17:25;;;;;;;35.17;18.27;;;;;;;4.74;100.00;94672.28;5072366;28;20188;-53
2023/01/14 03:19:59;;;;;;;31.77;17.87;;;;;;;4.82;100.00;94685.22;5072384;28;20295;-55
2023/01/14 03:22:27;;;;;;;33.63;18.20;;;;;;;4.76;100.00;94683.06;5072171;28;20218;-58
2023/01/14 03:24:56;;;;;;;33.90;18.07;;;;;;;4.76;100.00;94678.03;5072219;28;20204;-53
2023/01/14 03:27:25;;;;;;;29.17;16.63;;;;;;;4.59;100.00;94683.28;5054061;28;20654;-53
2023/01/14 03:29:55;;;;;;;28.63;17.20;;;;;;;4.58;100.00;94673.31;5052218;28;20752;-56
2023/01/14 03:32:26;;;;;;;34.63;18.03;;;;;;;4.49;100.00;94673.88;5070706;28;20558;-56
2023/01/14 03:35:01;;;;;;;31.80;17.83;;;;;;;4.42;100.00;94663.38;5071910;28;20231;-55
2023/01/14 03:37:28;;;;;;;27.77;16.93;;;;;;;4.64;100.00;94662.88;5071913;28;20548;-54
2023/01/14 03:39:56;;;;;;;32.10;17.77;;;;;;;4.74;100.00;94679.84;5071672;28;20693;-54
2023/01/14 03:42:26;;;;;;;28.70;16.87;;;;;;;4.69;100.00;94661.69;5071814;28;20186;-56
2023/01/14 03:45:05;;;;;;;29.50;16.33;;;;;;;4.85;100.00;94682.50;5071452;28;20216;-57
2023/01/14 03:47:34;;;;;;;28.97;16.33;;;;;;;5.04;100.00;94690.53;5072217;28;20612;-54
2023/01/14 03:50:03;;;;;;;26.23;15.20;;;;;;;5.23;100.00;94710.34;5071747;28;20353;-57
2023/01/14 03:53:03;;;;;;;30.23;17.20;;;;;;;5.36;100.00;94713.69;5071828;28;20196;-57
2023/01/14 03:55:37;;;;;;;28.63;16.27;;;;;;;5.40;100.00;94709.25;5071193;28;20689;-57
2023/01/14 03:58:29;;;;;;;27.50;15.97;;;;;;;5.72;100.00;94744.09;5071484;28;20257;-54
2023/01/14 04:01:07;;;;;;;32.83;16.97;;;;;;;5.66;100.00;94713.41;5071951;28;20242;-54
2023/01/14 04:03:33;;;;;;;27.47;16.07;;;;;;;5.85;100.00;94742.44;5071879;28;20716;-54
2023/01/14 04:05:58;;;;;;;32.63;17.63;;;;;;;5.87;100.00;94728.03;5070963;28;20226;-54
2023/01/14 04:08:24;;;;;;;26.17;16.23;;;;;;;5.92;100.00;94731.03;5071407;28;20271;-54
2023/01/14 04:10:51;;;;;;;33.37;18.80;;;;;;;5.68;100.00;94704.03;5071031;28;20234;-52
2023/01/14 04:16:03;;;;;;;37.10;20.10;;;;;;;5.55;100.00;94690.63;5070995;28;20227;-56
2023/01/14 04:18:29;;;;;;;34.27;19.73;;;;;;;5.69;100.00;94709.00;5070734;28;20189;-52
2023/01/14 04:20:54;;;;;;;32.53;20.13;;;;;;;5.71;100.00;94694.59;5071336;28;20286;-57
2023/01/14 04:23:20;;;;;;;32.77;19.00;;;;;;;5.83;100.00;94696.34;5070034;28;20201;-56
2023/01/14 04:25:45;;;;;;;35.83;19.97;;;;;;;5.87;100.00;94697.75;5071106;28;20642;-53
2023/01/14 04:28:11;;;;;;;33.47;20.00;;;;;;;5.76;100.00;94696.78;5070412;28;20191;-53
2023/01/14 04:30:36;;;;;;;36.30;18.63;;;;;;;5.80;100.00;94690.63;5052882;28;20247;-54
2023/01/14 04:33:02;;;;;;;37.83;19.13;;;;;;;5.78;100.00;94687.41;5071184;28;20192;-56
2023/01/14 04:35:27;;;;;;;26.27;15.73;;;;;;;5.69;100.00;94691.34;5070592;28;20703;-55
2023/01/14 04:37:54;;;;;;;24.20;15.33;;;;;;;5.39;100.00;94679.91;5071145;28;20191;-55
2023/01/14 04:40:21;;;;;;;26.63;15.57;;;;;;;5.42;100.00;94670.44;5071013;28;20251;-57
2023/01/14 04:42:46;;;;;;;23.93;14.57;;;;;;;5.37;100.00;94669.13;5069443;28;20754;-56
2023/01/14 04:45:12;;;;;;;24.27;14.77;;;;;;;5.29;100.00;94657.03;5071385;28;20215;-53
2023/01/14 04:47:38;;;;;;;19.77;13.07;;;;;;;5.33;100.00;94677.78;5070576;28;20632;-53
2023/01/14 04:52:51;;;;;;;22.93;13.73;;;;;;;5.24;100.00;94666.59;5070921;28;20199;-54
2023/01/14 04:55:17;;;;;;;23.93;14.33;;;;;;;5.29;100.00;94671.34;5069100;28;20211;-52
2023/01/14 04:57:43;;;;;;;27.40;14.20;;;;;;;5.39;100.00;94684.97;5070210;28;20328;-53
2023/01/14 05:00:10;;;;;;;20.80;12.63;;;;;;;5.40;100.00;94692.41;5069872;28;20219;-53
2023/01/14 05:02:35;;;;;;;18.30;12.40;;;;;;;5.40;100.00;94686.56;5069395;28;20188;-57
2023/01/14 05:05:01;;;;;;;23.60;13.83;;;;;;;5.33;100.00;94685.34;5069281;28;20222;-57
2023/01/14 05:07:26;;;;;;;25.53;14.83;;;;;;;5.46;100.00;94703.81;5070572;28;20267;-53
2023/01/14 05:09:52;;;;;;;21.63;13.80;;;;;;;5.39;100.00;94690.00;5073429;28;20219;-53
2023/01/14 05:12:17;;;;;;;21.33;13.67;;;;;;;5.48;100.00;94695.25;5073112;28;20268;-54
2023/01/14 05:14:42;;;;;;;24.97;13.50;;;;;;;5.60;100.00;94708.78;5074380;28;20208;-56
2023/01/14 05:17:08;;;;;;;21.43;12.90;;;;;;;5.72;100.00;94715.53;5074236;28;20668;-53
2023/01/14 05:19:33;;;;;;;17.73;9.83;;;;;;;5.61;100.00;94691.06;5074320;28;20228;-55
2023/01/14 05:22:00;;;;;;;17.47;10.60;;;;;;;5.71;100.00;94717.28;5074315;28;20204;-54
2023/01/14 05:24:25;;;;;;;16.77;8.63;;;;;;;5.80;100.00;94734.31;5074123;28;20221;-58
2023/01/14 05:26:51;;;;;;;14.40;8.00;;;;;;;5.92;100.00;94768.88;5073722;28;20267;-52
2023/01/14 05:29:17;;;;;;;14.63;7.13;;;;;;;5.87;100.00;94772.59;5072668;28;20219;-55
2023/01/14 05:31:43;;;;;;;11.23;6.63;;;;;;;5.48;100.00;94758.28;5073280;28;20212;-54
2023/01/14 05:34:10;;;;;;;8.90;6.30;;;;;;;5.39;100.00;94745.44;5073276;28;20185;-55
2023/01/14 05:36:35;;;;;;;8.80;5.83;;;;;;;5.63;100.00;94774.97;5071862;28;20233;-53
2023/01/14 05:39:01;;;;;;;11.17;6.27;;;;;;;5.54;100.00;94783.09;5072547;28;20195;-56
2023/01/14 05:41:26;;;;;;;8.37;5.67;;;;;;;5.37;100.00;94750.59;5072385;28;20574;-56
2023/01/14 05:46:35;;;;;;;7.60;5.40;;;;;;;5.34;100.00;94757.53;5073692;28;20180;-53
2023/01/14 05:49:00;;;;;;;7.03;5.17;;;;;;;5.53;100.00;94784.00;5053897;28;20239;-53
2023/01/14 05:51:26;;;;;;;7.20;5.00;;;;;;;5.58;100.00;94807.22;5072104;28;20258;-57
2023/01/14 05:53:51;;;;;;;8.17;5.10;;;;;;;5.51;100.00;94808.50;5071438;28;20578;-57
2023/01/14 05:56:17;;;;;;;7.87;5.47;;;;;;;5.43;100.00;94797.28;5071648;28;20250;-55
2023/01/14 05:58:42;;;;;;;6.50;4.93;;;;;;;5.54;100.00;94804.97;5073505;28;20249;-56
2023/01/14 06:06:47;;;;;;;7.17;5.40;;;;;;;5.74;100.00;94824.69;5080821;22;20229;-55
2023/01/14 06:09:14;;;;;;;8.03;5.47;;;;;;;5.71;100.00;94822.38;5073661;28;20188;-54
2023/01/14 06:11:40;;;;;;;8.37;5.40;;;;;;;5.69;100.00;94804.03;5073406;28;20200;-55
2023/01/14 06:14:05;;;;;;;11.33;6.37;;;;;;;5.65;100.00;94785.75;5073183;28;20188;-56
2023/01/14 06:16:42;;;;;;;25.40;13.60;;;;;;;5.04;100.00;94740.91;5073595;28;20207;-57
2023/01/14 06:19:12;;;;;;;11.73;7.83;;;;;;;4.85;100.00;94695.06;5072124;28;20291;-55
2023/01/14 06:21:39;;;;;;;9.80;6.27;;;;;;;5.15;100.00;94710.00;5073609;28;20704;-54
2023/01/14 06:24:11;;;;;;;9.13;6.23;;;;;;;5.46;100.00;94744.13;5073239;28;20188;-53
2023/01/14 06:26:37;;;;;;;8.23;5.77;;;;;;;5.66;100.00;94757.09;5073409;28;20207;-57
2023/01/14 06:29:06;;;;;;;13.33;6.50;;;;;;;5.77;100.00;94756.41;5055121;28;20206;-57
2023/01/14 06:31:32;;;;;;;12.30;6.67;;;;;;;5.80;100.00;94746.13;5073263;28;20189;-57
2023/01/14 06:33:58;;;;;;;15.43;8.10;;;;;;;5.91;100.00;94749.63;5072939;28;20188;-57
2023/01/14 06:36:24;;;;;;;27.03;16.50;;;;;;;5.80;100.00;94716.66;5073228;28;20196;-58
2023/01/14 06:38:50;;;;;;;36.83;21.57;;;;;;;5.74;100.00;94694.38;5080455;22;20739;-54
2023/01/14 06:41:16;;;;;;;40.47;25.03;;;;;;;5.62;100.00;94672.47;5072876;28;20249;-56
2023/01/14 06:43:42;;;;;;;37.07;20.70;;;;;;;5.53;100.00;94677.31;5054992;28;20646;-53
2023/01/14 06:46:08;;;;;;;40.03;22.47;;;;;;;5.06;100.00;94638.34;5072729;28;20223;-56
2023/01/14 06:48:34;;;;;;;34.43;19.80;;;;;;;5.19;100.00;94672.81;5072654;28;20579;-53
2023/01/14 06:51:07;;;;;;;31.30;19.33;;;;;;;5.44;100.00;94700.59;5072706;28;20224;-54
2023/01/14 06:53:33;;;;;;;31.77;20.00;;;;;;;5.41;100.00;94690.72;5073158;28;20601;-60
2023/01/14 06:56:10;;;;;;;32.13;18.90;;;;;;;5.38;100.00;94700.97;5072652;28;20288;-53
2023/01/14 06:58:35;;;;;;;31.10;18.70;;;;;;;5.48;100.00;94722.16;5072956;28;20200;-54
2023/01/14 07:01:01;;;;;;;29.67;18.80;;;;;;;5.72;100.00;94738.25;5072429;28;20689;-58
2023/01/14 07:03:27;;;;;;;31.93;19.37;;;;;;;5.81;100.00;94750.28;5072328;28;20208;-57
2023/01/14 07:05:52;;;;;;;27.20;17.00;;;;;;;5.88;100.00;94756.56;5072313;28;20593;-53
2023/01/14 07:08:18;;;;;;;30.90;17.50;;;;;;;5.74;100.00;94729.69;5072367;28;20196;-57
2023/01/14 07:10:49;;;;;;;29.27;18.20;;;;;;;5.58;100.00;94720.66;5072335;28;20219;-53
2023/01/14 07:13:14;;;;;;;35.60;18.37;;;;;;;5.51;100.00;94714.44;5072743;28;20220;-54
2023/01/14 07:15:39;;;;;;;30.27;17.50;;;;;;;5.38;100.00;94713.56;5072400;28;20743;-57
2023/01/14 07:18:05;;;;;;;27.77;16.50;;;;;;;5.42;100.00;94717.50;5054440;28;20257;-55
2023/01/14 07:20:30;;;;;;;33.00;18.03;;;;;;;5.46;100.00;94704.63;5072324;28;20298;-56
2023/01/14 07:23:01;;;;;;;27.77;18.23;;;;;;;5.47;100.00;94734.00;5072568;28;20691;-54
2023/01/14 07:25:26;;;;;;;31.93;18.93;;;;;;;5.43;100.00;94740.13;5072336;28;20224;-53
2023/01/14 07:27:52;;;;;;;33.47;20.47;;;;;;;5.47;100.00;94725.59;5072516;28;20192;-54
2023/01/14 07:30:17;;;;;;;34.53;20.20;;;;;;;5.47;100.00;94740.72;5071865;28;20299;-58
2023/01/14 07:32:43;;;;;;;31.60;18.27;;;;;;;5.61;100.00;94765.88;5071725;28;20231;-56
2023/01/14 07:35:09;;;;;;;33.33;18.57;;;;;;;5.56;100.00;94756.06;5054064;28;20219;-57
2023/01/14 07:37:34;;;;;;;36.07;18.20;;;;;;;5.70;100.00;94760.22;5071965;28;20196;-60
2023/01/14 07:39:59;;;;;;;28.37;17.77;;;;;;;5.75;100.00;94758.22;5071802;28;20220;-57
2023/01/14 07:42:26;;;;;;;32.97;19.17;;;;;;;5.66;100.00;94767.19;5072083;28;20230;-54
2023/01/14 07:44:51;;;;;;;28.30;16.93;;;;;;;5.55;100.00;94746.09;5071636;28;20303;-54
2023/01/14 07:47:17;;;;;;;30.97;18.13;;;;;;;5.51;100.00;94754.75;5071976;28;20294;-58
2023/01/14 07:49:42;;;;;;;33.37;17.27;;;;;;;5.88;100.00;94795.19;5071866;28;20208;-54
2023/01/14 07:52:12;;;;;;;33.43;18.00;;;;;;;5.84;100.00;94803.88;5071749;28;20212;-54
2023/01/14 07:54:38;;;;;;;31.47;17.03;;;;;;;5.72;100.00;94771.84;5071745;28;20200;-57
2023/01/14 07:57:03;;;;;;;31.23;16.73;;;;;;;5.65;100.00;94765.59;5071571;28;20195;-57
2023/01/14 07:59:29;;;;;;;31.87;18.53;;;;;;;5.78;100.00;94778.19;5053612;28;20211;-57
2023/01/14 08:01:54;;;;;;;26.37;16.53;;;;;;;5.73;100.00;94782.75;5071530;28;20191;-55
2023/01/14 08:04:20;;;;;;;31.93;16.90;;;;;;;5.89;100.00;94806.94;5071536;28;20218;-56
2023/01/14 08:06:45;;;;;;;28.50;16.57;;;;;;;5.99;100.00;94812.19;5071731;28;20646;-57
2023/01/14 08:09:10;;;;;;;25.47;15.73;;;;;;;6.12;100.00;94850.06;5071668;28;20676;-58
2023/01/14 08:11:36;;;;;;;26.27;14.70;;;;;;;6.07;100.00;94850.34;5071654;28;20279;-58
2023/01/14 08:14:02;;;;;;;23.57;14.17;;;;;;;6.20;100.00;94860.47;5070361;28;20219;-53
2023/01/14 08:16:28;;;;;;;20.70;13.03;;;;;;;6.33;100.00;94877.25;5069272;28;20283;-55
2023/01/14 08:18:53;;;;;;;28.47;15.53;;;;;;;6.30;100.00;94856.44;5069620;28;20272;-54
2023/01/14 08:21:19;;;;;;;31.97;15.27;;;;;;;6.12;100.00;94823.09;5070372;28;20272;-56
2023/01/14 08:23:44;;;;;;;30.87;16.43;;;;;;;6.21;100.00;94851.97;5070359;28;20196;-56
2023/01/14 08:26:12;;;;;;;22.20;13.93;;;;;;;6.24;100.00;94852.56;5070782;28;20299;-54
2023/01/14 08:28:39;;;;;;;24.93;15.60;;;;;;;6.31;100.00;94850.47;5070551;28;20215;-53
2023/01/14 08:31:11;;;;;;;23.73;15.47;;;;;;;6.45;100.00;94855.44;5071050;28;20269;-54
2023/01/14 08:33:37;;;;;;;32.07;18.37;;;;;;;6.20;100.00;94866.31;5071260;28;20567;-54
2023/01/14 08:36:06;;;;;;;29.37;18.87;;;;;;;6.26;100.00;94855.81;5071140;28;20330;-54
2023/01/14 08:38:39;;;;;;;33.67;19.03;;;;;;;6.47;100.00;94846.03;5071125;28;20196;-58
2023/01/14 08:41:06;;;;;;;37.30;19.97;;;;;;;6.69;100.00;94867.25;5071240;28;20216;-58
2023/01/14 08:43:31;;;;;;;31.00;19.17;;;;;;;6.73;100.00;94905.75;5070546;28;20218;-57
2023/01/14 08:45:58;;;;;;;24.97;17.03;;;;;;;7.00;100.00;94953.66;5070987;28;20303;-57
2023/01/14 08:48:23;;;;;;;31.10;15.77;;;;;;;6.99;100.00;94957.91;5071079;28;20214;-54
2023/01/14 08:50:49;;;;;;;26.23;16.07;;;;;;;7.68;100.00;94982.72;5070972;28;20678;-54
2023/01/14 08:53:14;;;;;;;22.43;13.57;;;;;;;7.89;100.00;95008.28;5071164;28;20251;-57
2023/01/14 08:55:39;;;;;;;21.97;13.80;;;;;;;8.07;100.00;95032.34;5070759;28;20216;-57
2023/01/14 08:58:06;;;;;;;20.87;11.57;;;;;;;8.31;100.00;94888.84;5070810;28;20196;-58
2023/01/14 09:00:32;;;;;;;16.60;10.93;;;;;;;8.63;100.00;95066.41;5070861;28;20712;-55
2023/01/14 09:02:58;;;;;;;13.00;8.50;;;;;;;8.86;100.00;95076.56;5070782;28;20193;-54
2023/01/14 09:05:24;;;;;;;9.97;7.10;;;;;;;8.90;100.00;95132.91;5070600;28;20215;-55
2023/01/14 09:18:49;;;;;;;6.53;4.53;;;;;;;9.48;100.00;95160.81;5070476;28;20200;-53
2023/01/14 09:21:14;;;;;;;7.23;4.40;;;;;;;9.46;100.00;95144.88;5069073;28;20224;-55
2023/01/14 09:23:40;;;;;;;6.13;4.50;;;;;;;9.65;100.00;95129.13;5070489;28;20192;-53
2023/01/14 09:26:05;;;;;;;9.93;6.40;;;;;;;9.27;100.00;95121.78;5052662;28;20228;-54
2023/01/14 09:28:31;;;;;;;9.70;4.73;;;;;;;9.78;100.00;95123.03;5052519;28;20677;-55
2023/01/14 09:30:56;;;;;;;6.67;5.07;;;;;;;10.29;100.00;95112.44;5070601;28;20266;-58
2023/01/14 09:33:22;;;;;;;6.17;4.87;;;;;;;10.77;98.42;95169.69;5070740;28;20557;-55
2023/01/14 09:35:47;;;;;;;6.07;4.53;;;;;;;11.22;80.54;95218.75;5070166;28;20211;-55
2023/01/14 09:38:12;;;;;;;7.70;4.67;;;;;;;10.57;78.58;95218.72;5068872;28;20670;-58
2023/01/14 09:40:39;;;;;;;6.63;4.10;;;;;;;10.55;79.37;95175.63;5070203;28;20205;-57
2023/01/14 09:43:13;;;;;;;5.70;4.50;;;;;;;11.31;76.82;95226.47;5070422;28;20196;-57
2023/01/14 09:45:39;;;;;;;5.00;3.83;;;;;;;11.37;75.54;95251.44;5069775;28;20208;-55
2023/01/14 09:48:18;;;;;;;7.83;5.23;;;;;;;10.85;76.44;95165.63;5070010;28;20197;-58
2023/01/14 09:51:10;;;;;;;7.13;4.90;;;;;;;10.77;73.83;95188.31;5070315;28;20200;-57
2023/01/14 09:54:04;;;;;;;6.00;4.00;;;;;;;10.80;72.59;95194.91;5071567;28;20192;-53
2023/01/14 09:56:49;;;;;;;6.23;4.60;;;;;;;10.24;73.20;95150.91;5073691;28;20681;-54
2023/01/14 09:59:37;;;;;;;9.60;4.97;;;;;;;9.63;75.72;95067.50;5073521;28;20243;-58
2023/01/14 10:02:15;;;;;;;5.70;4.20;;;;;;;9.40;77.47;95025.25;5073714;28;20202;-55
2023/01/14 10:04:50;;;;;;;7.93;4.73;;;;;;;9.10;80.50;94950.53;5073392;28;20270;-56
2023/01/14 10:07:17;;;;;;;8.83;4.87;;;;;;;9.86;77.14;95043.72;5073664;28;20184;-58
2023/01/14 10:09:50;;;;;;;7.97;5.33;;;;;;;10.33;75.99;95063.00;5073406;28;20208;-56
2023/01/14 10:12:40;;;;;;;10.17;5.27;;;;;;;10.57;74.15;95101.78;5072335;28;20221;-57
2023/01/14 10:15:17;;;;;;;8.77;5.30;;;;;;;10.94;71.94;95156.50;5072682;28;20212;-54
2023/01/14 10:17:50;;;;;;;6.37;5.17;;;;;;;11.14;70.64;95163.38;5080163;22;20242;-57
2023/01/14 10:20:21;;;;;;;9.67;5.53;;;;;;;11.31;69.78;95160.28;5072739;28;20279;-59
2023/01/14 10:23:12;;;;;;;7.07;5.20;;;;;;;12.14;68.28;95221.50;5073281;28;20193;-56
2023/01/14 10:25:38;;;;;;;7.50;5.33;;;;;;;12.52;66.99;95252.31;5063281;28;20221;-58
2023/01/14 10:28:12;;;;;;;7.83;5.27;;;;;;;12.77;65.46;95290.16;5071336;28;20213;-57
2023/01/14 10:30:38;;;;;;;11.40;6.67;;;;;;;12.97;65.18;95273.19;5072343;28;20213;-57
2023/01/14 10:33:05;;;;;;;10.33;5.93;;;;;;;12.64;64.93;95258.94;5073006;28;20282;-57
2023/01/14 10:35:38;;;;;;;8.33;5.80;;;;;;;12.96;62.92;95308.09;5072650;28;20215;-54
2023/01/14 10:38:04;;;;;;;7.73;5.57;;;;;;;12.94;63.65;95275.97;5073057;28;20180;-58
2023/01/14 10:40:31;;;;;;;10.20;6.00;;;;;;;13.14;61.73;95311.69;5072570;28;20216;-56
2023/01/14 10:42:58;;;;;;;7.53;5.13;;;;;;;13.26;62.25;95297.09;5071767;28;20181;-58
2023/01/14 10:45:24;;;;;;;9.23;6.30;;;;;;;13.30;62.54;95291.59;5072733;28;20703;-58
2023/01/14 10:48:02;;;;;;;6.27;5.50;;;;;;;12.82;62.42;95270.16;5072797;28;20199;-54
2023/01/14 10:50:29;;;;;;;6.67;4.87;;;;;;;12.92;62.45;95273.56;5072520;28;20225;-54
2023/01/14 10:53:15;;;;;;;8.20;6.23;;;;;;;12.36;63.55;95214.50;5073255;28;20207;-54
2023/01/14 10:55:51;;;;;;;14.63;7.73;;;;;;;11.61;68.45;95083.19;5071665;28;20211;-53
2023/01/14 10:58:30;;;;;;;11.50;7.50;;;;;;;11.43;67.88;95087.25;5072583;28;20188;-56
2023/01/14 11:01:07;;;;;;;11.20;7.67;;;;;;;11.21;69.05;95049.97;5071190;28;20304;-54
2023/01/14 11:03:42;;;;;;;10.37;7.50;;;;;;;10.75;71.41;95001.16;5072653;28;20193;-54
2023/01/14 11:06:13;;;;;;;11.40;8.37;;;;;;;10.46;72.33;94973.00;5071841;28;20208;-53
2023/01/14 11:08:47;;;;;;;13.33;9.27;;;;;;;10.40;73.34;94949.81;5072639;28;20185;-55
2023/01/14 11:11:17;;;;;;;15.17;9.33;;;;;;;9.88;74.97;94909.84;5072365;28;20208;-54
2023/01/14 11:13:44;;;;;;;16.13;9.83;;;;;;;9.62;76.71;94861.13;5072433;28;20204;-55
2023/01/14 11:16:25;;;;;;;16.20;11.20;;;;;;;9.33;78.05;94837.97;5072299;28;20217;-53
2023/01/14 11:18:56;;;;;;;20.03;11.70;;;;;;;9.56;77.63;94853.97;5072337;28;20334;-54
2023/01/14 11:21:23;;;;;;;19.07;11.53;;;;;;;10.04;76.70;94895.84;5072376;28;20220;-53
2023/01/14 11:23:58;;;;;;;18.33;10.80;;;;;;;9.85;75.33;94925.34;5072228;28;20579;-54
2023/01/14 11:26:36;;;;;;;17.50;11.77;;;;;;;9.02;79.05;94835.38;5072757;28;20230;-54
2023/01/14 11:29:02;;;;;;;17.33;11.57;;;;;;;8.94;79.07;94820.75;5072106;28;20250;-54
2023/01/14 11:31:30;;;;;;;17.30;12.20;;;;;;;8.53;82.06;94784.22;5072033;28;20313;-57
2023/01/14 11:33:57;;;;;;;17.73;12.37;;;;;;;8.38;82.02;94761.63;5072101;28;20177;-58
2023/01/14 11:36:24;;;;;;;18.83;13.63;;;;;;;8.78;81.90;94782.28;5072323;28;20192;-54
2023/01/14 11:38:51;;;;;;;20.10;14.30;;;;;;;9.08;80.94;94822.22;5070870;28;20185;-54
2023/01/14 11:41:40;;;;;;;28.30;16.17;;;;;;;9.28;80.14;94829.13;5072026;28;20606;-56
2023/01/14 11:44:15;;;;;;;22.53;14.37;;;;;;;10.17;78.09;94894.91;5072128;28;20204;-57
2023/01/14 11:46:44;;;;;;;27.53;16.83;;;;;;;10.24;76.90;94903.66;5072022;28;20192;-58
2023/01/14 11:49:12;;;;;;;25.00;17.07;;;;;;;10.02;76.84;94910.41;5071854;28;20181;-57
2023/01/14 11:51:40;;;;;;;25.93;17.10;;;;;;;9.83;77.38;94900.06;5072093;28;20197;-58
2023/01/14 11:54:19;;;;;;;23.30;16.03;;;;;;;9.84;78.10;94867.84;5071798;28;20234;-57
2023/01/14 11:56:46;;;;;;;25.03;16.80;;;;;;;9.89;77.85;94886.91;5072029;28;20189;-54
2023/01/14 11:59:31;;;;;;;30.60;17.17;;;;;;;9.78;78.31;94879.31;5071403;28;20270;-54